createdAt,value
2023-01-21T00:02:08.691Z,82.31
2023-01-21T00:04:38.286Z,83.42
2023-01-21T00:07:05.405Z,82.90
2023-01-21T00:09:32.194Z,83.12
2023-01-21T00:11:59.235Z,83.68
2023-01-21T00:14:34.689Z,83.68
2023-01-21T00:17:04.511Z,83.83
2023-01-21T00:19:33.637Z,84.09
2023-01-21T00:22:00.307Z,85.03
2023-01-21T00:24:27.181Z,84.06
2023-01-21T00:26:53.935Z,84.29
2023-01-21T00:29:21.531Z,84.51
2023-01-21T00:31:49.064Z,84.08
2023-01-21T00:34:15.975Z,83.82
2023-01-21T00:36:42.768Z,84.46
2023-01-21T00:39:09.571Z,84.67
2023-01-21T00:41:37.572Z,84.13
2023-01-21T00:44:04.808Z,83.83
2023-01-21T00:46:32.264Z,84.77
2023-01-21T00:49:00.423Z,84.14
2023-01-21T00:51:27.851Z,84.13
2023-01-21T00:53:57.613Z,84.38
2023-01-21T00:56:24.646Z,84.05
2023-01-21T00:58:51.484Z,83.57
2023-01-21T01:01:19.932Z,83.33
2023-01-21T01:03:47.569Z,83.00
2023-01-21T01:06:19.288Z,82.93
2023-01-21T01:08:46.711Z,83.50
2023-01-21T01:11:14.219Z,82.93
2023-01-21T01:13:41.021Z,83.18
2023-01-21T01:16:07.816Z,82.72
2023-01-21T01:18:35.352Z,83.53
2023-01-21T01:21:02.583Z,83.07
2023-01-21T01:23:29.684Z,82.67
2023-01-21T01:25:56.996Z,82.86
2023-01-21T01:28:23.928Z,82.08
2023-01-21T01:30:51.533Z,82.33
2023-01-21T01:33:19.295Z,82.03
2023-01-21T01:35:49.430Z,81.97
2023-01-21T01:38:17.109Z,81.72
2023-01-21T01:40:43.968Z,81.72
2023-01-21T01:43:18.092Z,82.65
2023-01-21T01:45:44.685Z,82.79
2023-01-21T01:48:15.629Z,82.39
2023-01-21T01:50:42.780Z,82.28
2023-01-21T01:53:11.153Z,82.25
2023-01-21T01:55:38.873Z,81.52
2023-01-21T01:58:06.942Z,82.26
2023-01-21T02:00:34.455Z,81.82
2023-01-21T02:03:19.848Z,81.60
2023-01-21T02:05:46.873Z,82.33
2023-01-21T02:08:13.968Z,81.68
2023-01-21T02:10:40.677Z,82.18
2023-01-21T02:13:07.229Z,81.60
2023-01-21T02:15:57.161Z,80.75
2023-01-21T02:18:46.482Z,81.01
2023-01-21T02:21:13.071Z,81.22
2023-01-21T02:23:42.645Z,81.00
2023-01-21T02:26:28.029Z,80.78
2023-01-21T02:29:06.881Z,80.51
2023-01-21T02:31:48.664Z,80.91
2023-01-21T02:34:15.242Z,79.82
2023-01-21T02:36:53.989Z,80.34
2023-01-21T02:39:29.359Z,79.73
2023-01-21T02:42:04.973Z,78.67
2023-01-21T02:44:39.574Z,77.78
2023-01-21T02:47:08.829Z,78.42
2023-01-21T02:49:38.498Z,78.22
2023-01-21T02:52:05.028Z,78.59
2023-01-21T02:54:40.801Z,77.86
2023-01-21T02:57:13.373Z,78.62
2023-01-21T02:59:42.416Z,77.84
2023-01-21T03:02:18.318Z,78.13
2023-01-21T03:04:50.877Z,78.43
2023-01-21T03:07:56.226Z,78.57
2023-01-21T03:10:31.385Z,77.88
2023-01-21T03:13:07.250Z,78.22
2023-01-21T03:15:57.606Z,78.43
2023-01-21T03:18:26.531Z,77.75
2023-01-21T03:21:01.775Z,77.66
2023-01-21T03:23:39.286Z,77.44
2023-01-21T03:26:07.490Z,77.84
2023-01-21T03:28:36.138Z,77.67
2023-01-21T03:31:11.697Z,77.01
2023-01-21T03:33:40.546Z,77.27
2023-01-21T03:36:11.811Z,77.29
2023-01-21T03:38:42.624Z,76.95
2023-01-21T03:41:13.941Z,77.13
2023-01-21T03:43:40.543Z,76.84
2023-01-21T03:46:14.042Z,76.65
2023-01-21T03:48:59.368Z,76.87
2023-01-21T03:51:29.265Z,76.05
2023-01-21T03:53:56.495Z,75.93
2023-01-21T03:56:24.141Z,74.68
2023-01-21T03:58:50.556Z,74.53
2023-01-21T04:01:17.030Z,74.41
2023-01-21T04:03:43.644Z,74.35
2023-01-21T04:06:13.988Z,73.65
2023-01-21T04:08:40.666Z,73.06
2023-01-21T04:11:07.109Z,73.35
2023-01-21T04:13:33.621Z,72.62
2023-01-21T04:16:00.107Z,72.23
2023-01-21T04:18:26.625Z,71.92
2023-01-21T04:20:53.241Z,72.46
2023-01-21T04:23:19.759Z,72.13
2023-01-21T04:25:49.920Z,72.02
2023-01-21T04:28:16.540Z,72.06
2023-01-21T04:30:43.049Z,72.87
2023-01-21T04:33:09.733Z,73.25
2023-01-21T04:35:36.434Z,73.38
2023-01-21T04:38:03.078Z,73.33
2023-01-21T04:40:29.691Z,74.19
2023-01-21T04:42:56.244Z,73.71
2023-01-21T04:45:22.878Z,73.37
2023-01-21T04:47:49.462Z,73.77
2023-01-21T04:50:16.519Z,73.35
2023-01-21T04:52:43.127Z,73.42
2023-01-21T04:55:10.207Z,73.55
2023-01-21T04:57:37.170Z,74.34
2023-01-21T05:00:05.474Z,73.68
2023-01-21T05:02:32.539Z,74.13
2023-01-21T05:04:59.439Z,74.16
2023-01-21T05:07:26.995Z,74.57
2023-01-21T05:09:53.429Z,74.30
2023-01-21T05:12:19.923Z,74.11
2023-01-21T05:14:46.508Z,74.90
2023-01-21T05:17:13.008Z,75.26
2023-01-21T05:19:39.557Z,74.38
2023-01-21T05:22:06.071Z,74.71
2023-01-21T05:24:32.622Z,74.66
2023-01-21T05:26:59.194Z,74.67
2023-01-21T05:29:25.767Z,74.81
2023-01-21T05:31:52.366Z,75.55
2023-01-21T05:34:18.893Z,74.96
2023-01-21T05:36:45.395Z,75.50
2023-01-21T05:39:11.850Z,74.72
2023-01-21T05:41:38.291Z,74.93
2023-01-21T05:44:04.857Z,74.65
2023-01-21T05:46:31.377Z,74.83
2023-01-21T05:48:57.852Z,75.00
2023-01-21T05:51:24.452Z,74.72
2023-01-21T05:53:50.957Z,74.85
2023-01-21T05:56:17.451Z,75.00
2023-01-21T05:58:43.984Z,75.05
2023-01-21T06:01:10.545Z,74.05
2023-01-21T06:03:38.166Z,74.54
2023-01-21T06:06:04.962Z,73.82
2023-01-21T06:08:31.406Z,73.08
2023-01-21T06:10:57.891Z,72.28
2023-01-21T06:13:24.472Z,72.23
2023-01-21T06:15:53.996Z,72.51
2023-01-21T06:18:20.528Z,71.89
2023-01-21T06:20:46.972Z,72.97
2023-01-21T06:23:13.461Z,72.27
2023-01-21T06:25:40.798Z,72.86
2023-01-21T06:28:07.254Z,73.03
2023-01-21T06:30:33.707Z,72.98
2023-01-21T06:33:00.174Z,72.95
2023-01-21T06:35:26.675Z,72.78
2023-01-21T06:37:53.125Z,73.13
2023-01-21T06:40:19.716Z,73.60
2023-01-21T06:42:46.962Z,71.71
2023-01-21T06:45:13.574Z,70.63
2023-01-21T06:47:41.473Z,69.63
2023-01-21T06:50:09.203Z,70.32
2023-01-21T06:52:35.622Z,70.51
2023-01-21T06:55:02.095Z,71.50
2023-01-21T06:57:28.535Z,71.26
2023-01-21T06:59:54.986Z,71.72
2023-01-21T07:02:21.497Z,72.05
2023-01-21T07:04:50.836Z,70.84
2023-01-21T07:07:17.551Z,70.90
2023-01-21T07:09:44.396Z,70.58
2023-01-21T07:12:10.913Z,70.87
2023-01-21T07:14:37.501Z,69.94
2023-01-21T07:17:04.084Z,69.92
2023-01-21T07:19:30.609Z,70.52
2023-01-21T07:21:57.159Z,70.80
2023-01-21T07:24:23.678Z,70.66
2023-01-21T07:26:50.214Z,71.08
2023-01-21T07:29:16.968Z,69.81
2023-01-21T07:31:43.502Z,70.46
2023-01-21T07:34:10.188Z,70.14
2023-01-21T07:36:36.668Z,70.58
2023-01-21T07:39:03.160Z,70.40
2023-01-21T07:41:29.721Z,70.58
2023-01-21T07:43:56.225Z,70.65
2023-01-21T07:46:23.449Z,69.33
2023-01-21T07:48:51.697Z,69.11
2023-01-21T07:51:21.877Z,68.65
2023-01-21T07:53:48.466Z,68.82
2023-01-21T07:56:16.249Z,68.92
2023-01-21T07:58:42.788Z,69.32
2023-01-21T08:01:10.017Z,69.09
2023-01-21T08:03:38.873Z,69.33
2023-01-21T08:06:05.933Z,69.47
2023-01-21T08:08:33.192Z,70.12
2023-01-21T08:11:00.068Z,68.99
2023-01-21T08:13:27.387Z,68.81
2023-01-21T08:15:56.016Z,68.50
2023-01-21T08:18:23.405Z,69.43
2023-01-21T08:21:00.116Z,68.98
2023-01-21T08:23:27.329Z,69.48
2023-01-21T08:25:54.999Z,67.92
2023-01-21T08:28:22.655Z,67.71
2023-01-21T08:30:49.585Z,68.33
2023-01-21T08:33:16.272Z,67.50
2023-01-21T08:35:43.204Z,66.83
2023-01-21T08:38:10.113Z,65.55
2023-01-21T08:40:36.619Z,64.92
2023-01-21T08:43:04.839Z,64.87
2023-01-21T08:45:32.067Z,64.76
2023-01-21T08:47:58.674Z,64.60
2023-01-21T08:50:26.563Z,64.91
2023-01-21T08:52:54.070Z,64.71
2023-01-21T08:55:22.051Z,64.08
2023-01-21T08:57:52.057Z,64.70
2023-01-21T09:00:19.224Z,63.00
2023-01-21T09:02:46.214Z,62.29
2023-01-21T09:05:12.707Z,62.62
2023-01-21T09:07:39.241Z,61.97
2023-01-21T09:10:06.063Z,62.52
2023-01-21T09:12:32.776Z,62.22
2023-01-21T09:14:59.315Z,62.26
2023-01-21T09:17:26.270Z,61.80
2023-01-21T09:19:55.282Z,60.75
2023-01-21T09:22:21.967Z,60.75
2023-01-21T09:24:48.535Z,61.76
2023-01-21T09:27:15.063Z,61.51
2023-01-21T09:29:41.607Z,61.50
2023-01-21T09:32:08.104Z,60.71
2023-01-21T09:34:35.832Z,59.67
2023-01-21T09:37:03.065Z,59.79
2023-01-21T09:39:29.671Z,59.36
2023-01-21T09:41:56.668Z,59.53
2023-01-21T09:44:44.067Z,59.73
2023-01-21T09:47:24.944Z,59.24
2023-01-21T09:49:51.887Z,59.75
2023-01-21T09:52:37.456Z,60.24
2023-01-21T09:55:07.355Z,60.21
2023-01-21T09:57:34.062Z,60.22
2023-01-21T10:00:07.039Z,60.45
2023-01-21T10:02:48.800Z,59.26
2023-01-21T10:05:24.689Z,58.75
2023-01-21T10:07:51.527Z,58.12
2023-01-21T10:10:22.605Z,58.08
2023-01-21T10:13:01.439Z,57.54
2023-01-21T10:15:57.686Z,56.57
2023-01-21T10:18:30.839Z,57.81
2023-01-21T10:21:05.029Z,57.32
2023-01-21T10:23:34.665Z,57.46
2023-01-21T10:26:05.203Z,58.83
2023-01-21T10:28:32.791Z,57.94
2023-01-21T10:31:15.835Z,58.15
2023-01-21T10:33:45.408Z,57.62
2023-01-21T10:36:35.064Z,57.37
2023-01-21T10:39:08.073Z,56.82
2023-01-21T10:41:55.179Z,56.40
2023-01-21T10:44:25.741Z,56.60
2023-01-21T10:47:04.418Z,56.17
2023-01-21T10:49:49.775Z,55.14
2023-01-21T10:52:22.849Z,55.14
2023-01-21T10:54:59.108Z,55.84
2023-01-21T10:57:46.236Z,55.53
2023-01-21T11:00:18.988Z,57.16
2023-01-21T11:02:53.420Z,56.58
2023-01-21T11:05:21.181Z,56.29
2023-01-21T11:07:48.445Z,56.60
2023-01-21T11:10:25.620Z,56.07
2023-01-21T11:12:54.341Z,55.91
2023-01-21T11:15:22.240Z,55.51
2023-01-21T11:17:50.583Z,55.97
2023-01-21T11:20:23.373Z,55.88
2023-01-21T11:22:50.538Z,54.60
2023-01-21T11:25:36.061Z,55.08
2023-01-21T11:28:03.674Z,54.58
2023-01-21T11:30:49.706Z,54.21
2023-01-21T11:33:17.071Z,55.07
2023-01-21T11:35:45.424Z,55.19
2023-01-21T11:38:22.978Z,54.23
2023-01-21T11:40:59.324Z,55.14
2023-01-21T11:43:49.342Z,54.72
2023-01-21T11:46:28.912Z,53.46
2023-01-21T11:48:56.881Z,52.91
2023-01-21T11:51:23.599Z,53.66
2023-01-21T11:54:06.578Z,52.96
2023-01-21T11:56:33.102Z,53.35
2023-01-21T11:58:59.642Z,54.35
2023-01-21T12:01:27.559Z,55.21
2023-01-21T12:03:56.448Z,56.23
2023-01-21T12:06:30.498Z,56.54
2023-01-21T12:08:59.974Z,57.25
2023-01-21T12:11:28.245Z,57.30
2023-01-21T12:14:13.614Z,58.67
2023-01-21T12:16:40.100Z,58.44
2023-01-21T12:19:16.682Z,59.80
2023-01-21T12:21:49.878Z,59.57
2023-01-21T12:24:35.168Z,59.26
2023-01-21T12:27:04.678Z,59.17
2023-01-21T12:29:43.372Z,59.39
2023-01-21T12:32:13.867Z,59.86
2023-01-21T12:34:43.824Z,60.43
2023-01-21T12:37:18.386Z,60.62
2023-01-21T12:39:48.912Z,60.38
2023-01-21T12:42:18.550Z,59.49
2023-01-21T12:44:48.847Z,59.77
2023-01-21T12:47:27.485Z,59.00
2023-01-21T12:50:01.584Z,59.54
2023-01-21T12:52:46.872Z,60.13
2023-01-21T12:55:30.300Z,59.25
2023-01-21T12:58:00.003Z,58.91
2023-01-21T13:00:34.077Z,59.97
2023-01-21T13:03:09.027Z,59.41
2023-01-21T13:05:38.816Z,58.50
2023-01-21T13:08:11.625Z,59.40
2023-01-21T13:10:40.950Z,59.12
2023-01-21T13:13:15.072Z,58.35
2023-01-21T13:15:45.493Z,58.70
2023-01-21T13:18:15.856Z,58.87
2023-01-21T13:20:52.743Z,58.76
2023-01-21T13:23:33.206Z,58.68
2023-01-21T13:26:02.804Z,58.58
2023-01-21T13:28:39.903Z,58.71
2023-01-21T13:31:22.607Z,58.20
2023-01-21T13:34:20.388Z,58.36
2023-01-21T13:36:49.664Z,58.72
2023-01-21T13:39:28.153Z,59.17
2023-01-21T13:42:03.923Z,60.36
2023-01-21T13:44:49.239Z,59.68
2023-01-21T13:47:32.795Z,60.03
2023-01-21T13:50:02.507Z,60.13
2023-01-21T13:52:55.737Z,60.52
2023-01-21T13:55:38.236Z,59.61
2023-01-21T13:58:25.642Z,59.96
2023-01-21T14:01:01.468Z,60.38
2023-01-21T14:03:33.536Z,61.08
2023-01-21T14:06:05.277Z,61.04
2023-01-21T14:08:40.258Z,60.64
2023-01-21T14:11:09.992Z,61.74
2023-01-21T14:13:46.792Z,61.13
2023-01-21T14:16:16.683Z,61.59
2023-01-21T14:18:55.078Z,61.66
2023-01-21T14:21:39.939Z,61.63
2023-01-21T14:24:22.721Z,61.46
2023-01-21T14:26:57.346Z,60.78
2023-01-21T14:29:34.721Z,60.67
2023-01-21T14:32:05.973Z,60.64
2023-01-21T14:34:59.278Z,60.08
2023-01-21T14:37:52.229Z,60.33
2023-01-21T14:40:23.006Z,60.74
2023-01-21T14:42:51.015Z,61.17
2023-01-21T14:45:22.552Z,61.19
2023-01-21T14:47:50.863Z,60.30
2023-01-21T14:50:37.270Z,60.35
2023-01-21T14:53:10.675Z,59.97
2023-01-21T14:55:37.239Z,60.03
2023-01-21T14:58:04.104Z,59.39
2023-01-21T15:00:32.424Z,59.68
2023-01-21T15:03:02.104Z,60.29
2023-01-21T15:05:32.407Z,60.81
2023-01-21T15:08:01.947Z,61.34
2023-01-21T15:10:38.908Z,60.90
2023-01-21T15:13:22.335Z,60.51
2023-01-21T15:16:07.736Z,60.23
2023-01-21T15:18:36.794Z,61.68
2023-01-21T15:21:23.465Z,61.68
2023-01-21T15:23:50.307Z,61.87
2023-01-21T15:26:18.886Z,61.75
2023-01-21T15:28:49.616Z,61.24
2023-01-21T15:31:23.492Z,60.98
2023-01-21T15:33:55.324Z,61.44
2023-01-21T15:36:31.107Z,61.67
2023-01-21T15:39:02.619Z,61.97
2023-01-21T15:41:29.232Z,61.84
2023-01-21T15:44:04.342Z,61.86
2023-01-21T15:46:56.308Z,61.83
2023-01-21T15:49:33.146Z,62.27
2023-01-21T15:52:18.824Z,61.28
2023-01-21T15:54:50.214Z,61.52
2023-01-21T15:57:22.865Z,61.58
2023-01-21T16:00:09.670Z,62.06
2023-01-21T16:02:58.014Z,62.86
2023-01-21T16:05:31.191Z,62.01
2023-01-21T16:08:07.036Z,62.91
2023-01-21T16:10:42.096Z,63.03
2023-01-21T16:13:14.160Z,62.88
2023-01-21T16:15:53.131Z,62.71
2023-01-21T16:18:30.950Z,63.04
2023-01-21T16:21:00.569Z,63.73
2023-01-21T16:23:29.160Z,63.25
2023-01-21T16:25:55.764Z,63.53
2023-01-21T16:28:22.544Z,63.48
2023-01-21T16:30:57.276Z,62.73
2023-01-21T16:33:24.008Z,63.11
2023-01-21T16:35:56.208Z,63.77
2023-01-21T16:38:26.964Z,64.11
2023-01-21T16:41:16.899Z,64.43
2023-01-21T16:43:45.786Z,64.17
2023-01-21T16:46:14.747Z,64.11
2023-01-21T16:48:41.781Z,64.67
2023-01-21T16:51:23.735Z,64.65
2023-01-21T16:53:53.036Z,64.85
2023-01-21T16:56:28.303Z,64.31
2023-01-21T16:59:01.360Z,65.03
2023-01-21T17:01:31.933Z,64.81
2023-01-21T17:04:03.546Z,64.40
2023-01-21T17:06:35.585Z,64.58
2023-01-21T17:09:08.753Z,64.56
2023-01-21T17:11:38.789Z,64.07
2023-01-21T17:14:10.467Z,63.63
2023-01-21T17:16:39.811Z,63.20
2023-01-21T17:19:26.450Z,63.34
2023-01-21T17:21:55.870Z,63.49
2023-01-21T17:24:25.343Z,64.57
2023-01-21T17:27:04.627Z,64.43
2023-01-21T17:29:33.994Z,64.42
2023-01-21T17:32:02.344Z,63.50
2023-01-21T17:34:36.560Z,63.85
2023-01-21T17:37:33.425Z,63.70
2023-01-21T17:40:16.041Z,63.43
2023-01-21T17:42:43.455Z,63.39
2023-01-21T17:48:10.972Z,63.90
2023-01-21T17:50:46.561Z,64.36
2023-01-21T17:53:33.337Z,64.72
2023-01-21T17:56:19.205Z,64.80
2023-01-21T17:59:27.343Z,64.38
2023-01-21T18:02:03.875Z,63.43
2023-01-21T18:07:20.718Z,63.29
2023-01-21T18:10:34.157Z,63.45
2023-01-21T18:13:09.665Z,63.56
2023-01-21T18:15:54.462Z,63.87
2023-01-21T18:19:31.191Z,64.12
2023-01-21T18:22:26.683Z,63.85
2023-01-21T18:24:56.090Z,63.15
2023-01-21T18:27:35.857Z,62.85
2023-01-21T18:30:14.843Z,63.24
2023-01-21T18:32:56.271Z,62.96
2023-01-21T18:35:32.806Z,63.04
2023-01-21T18:38:03.006Z,63.50
2023-01-21T18:40:32.565Z,63.92
2023-01-21T18:43:01.657Z,64.39
2023-01-21T18:45:31.849Z,63.90
2023-01-21T18:48:03.674Z,63.69
2023-01-21T18:50:37.124Z,63.77
2023-01-21T18:53:09.684Z,64.08
2023-01-21T18:55:36.813Z,63.62
2023-01-21T18:58:18.262Z,64.46
2023-01-21T19:00:45.472Z,64.08
2023-01-21T19:03:21.829Z,64.38
2023-01-21T19:05:51.430Z,64.17
2023-01-21T19:08:27.113Z,64.79
2023-01-21T19:10:56.082Z,64.53
2023-01-21T19:13:25.659Z,64.14
2023-01-21T19:16:01.064Z,63.91
2023-01-21T19:18:28.279Z,63.78
2023-01-21T19:20:55.760Z,64.04
2023-01-21T19:23:28.016Z,65.01
2023-01-21T19:25:58.648Z,63.77
2023-01-21T19:28:26.151Z,64.32
2023-01-21T19:30:55.809Z,64.25
2023-01-21T19:33:25.142Z,64.27
2023-01-21T19:36:12.833Z,64.50
2023-01-21T19:38:42.653Z,64.62
2023-01-21T19:41:20.340Z,63.70
2023-01-21T19:43:47.399Z,63.97
2023-01-21T19:46:23.264Z,64.55
2023-01-21T19:48:54.139Z,63.76
2023-01-21T19:51:25.740Z,64.64
2023-01-21T19:53:58.226Z,64.61
2023-01-21T19:56:27.879Z,63.92
2023-01-21T19:58:57.634Z,62.72
2023-01-21T20:01:25.911Z,62.98
2023-01-21T20:04:00.650Z,62.68
2023-01-21T20:06:32.119Z,63.06
2023-01-21T20:09:00.738Z,63.15
2023-01-21T20:11:30.796Z,63.47
2023-01-21T20:13:57.931Z,63.43
2023-01-21T20:16:27.516Z,63.15
2023-01-21T20:18:59.704Z,63.08
2023-01-21T20:21:26.562Z,62.97
2023-01-21T20:23:53.325Z,63.02
2023-01-21T20:26:26.695Z,62.40
2023-01-21T20:28:54.694Z,62.45
2023-01-21T20:31:21.765Z,63.23
2023-01-21T20:33:49.115Z,62.10
2023-01-21T20:36:23.365Z,62.60
2023-01-21T20:39:00.038Z,62.24
2023-01-21T20:41:31.435Z,62.19
2023-01-21T20:44:01.408Z,62.57
2023-01-21T20:46:29.861Z,62.49
2023-01-21T20:49:00.343Z,62.60
2023-01-21T20:51:27.625Z,62.41
2023-01-21T20:53:57.452Z,63.28
2023-01-21T20:56:24.059Z,63.13
2023-01-21T20:58:54.119Z,62.90
2023-01-21T21:01:22.008Z,62.60
2023-01-21T21:03:49.104Z,62.60
2023-01-21T21:06:19.698Z,62.48
2023-01-21T21:08:50.032Z,63.30
2023-01-21T21:11:17.121Z,62.47
2023-01-21T21:13:46.709Z,62.49
2023-01-21T21:16:28.674Z,62.26
2023-01-21T21:18:56.525Z,62.54
2023-01-21T21:21:24.164Z,61.98
2023-01-21T21:23:52.218Z,62.67
2023-01-21T21:26:23.876Z,64.06
2023-01-21T21:28:51.313Z,66.43
2023-01-21T21:31:18.605Z,67.68
2023-01-21T21:33:45.327Z,69.15
2023-01-21T21:36:19.541Z,69.38
2023-01-21T21:38:47.045Z,70.78
2023-01-21T21:41:39.511Z,72.17
2023-01-21T21:44:06.994Z,72.30
2023-01-21T21:46:52.529Z,73.30
2023-01-21T21:49:21.161Z,73.83
2023-01-21T21:51:48.352Z,74.06
2023-01-21T21:54:17.866Z,74.48
2023-01-21T21:56:49.365Z,74.80
2023-01-21T21:59:18.379Z,74.93
2023-01-21T22:01:45.195Z,75.92
2023-01-21T22:04:12.729Z,75.64
2023-01-21T22:06:39.941Z,75.92
2023-01-21T22:09:10.070Z,76.01
2023-01-21T22:11:40.829Z,76.55
2023-01-21T22:14:45.664Z,76.20
2023-01-21T22:17:12.848Z,76.69
2023-01-21T22:19:49.460Z,77.61
2023-01-21T22:22:19.908Z,77.40
2023-01-21T22:24:54.515Z,77.43
2023-01-21T22:27:21.709Z,77.82
2023-01-21T22:29:48.365Z,78.09
2023-01-21T22:32:16.203Z,78.23
2023-01-21T22:34:47.939Z,79.09
2023-01-21T22:37:37.310Z,78.68
2023-01-21T22:40:21.568Z,78.61
2023-01-21T22:42:59.218Z,78.60
2023-01-21T22:45:30.208Z,79.17
2023-01-21T22:48:08.229Z,79.35
2023-01-21T22:50:45.892Z,79.11
2023-01-21T22:56:02.966Z,79.25
2023-01-21T22:59:09.769Z,79.46
2023-01-21T23:01:45.826Z,78.97
2023-01-21T23:04:17.881Z,78.35
2023-01-21T23:06:48.998Z,78.83
2023-01-21T23:10:20.172Z,78.68
2023-01-21T23:13:05.143Z,79.87
2023-01-21T23:16:19.286Z,79.57
2023-01-21T23:22:15.435Z,79.15
2023-01-21T23:25:07.047Z,78.85
2023-01-21T23:28:24.591Z,78.29
2023-01-21T23:30:55.491Z,78.73
2023-01-21T23:33:27.446Z,77.84
2023-01-21T23:35:57.534Z,78.62
2023-01-21T23:38:28.196Z,79.11
2023-01-21T23:40:55.955Z,79.16
2023-01-21T23:43:26.676Z,79.36
2023-01-21T23:45:56.595Z,79.61
2023-01-21T23:48:23.287Z,78.89
2023-01-21T23:53:51.138Z,78.00
2023-01-21T23:56:23.716Z,77.96
2023-01-21T23:58:56.921Z,77.50
